Time;durP1;ratioP1;P1;durP2;ratioP2;P2;SDS_P1;SDS_P2;PMS_P1;PMS_P2;Temp;Humidity;BMP_temperature;BMP_pressure;BME280_temperature;BME280_humidity;BME280_pressure;Samples;Min_cycle;Max_cycle;Signal;HPM_P1;HPM_P2
2022/07/20 00:00:08;;;;;;;6.75;3.75;;;20.50;36.20;;;;;;5038061;28;20222;-85
2022/07/20 00:02:49;;;;;;;7.13;3.88;;;20.40;36.60;;;;;;5034914;28;20284;-85
2022/07/20 00:05:16;;;;;;;7.10;4.30;;;20.30;36.50;;;;;;5027975;28;20209;-84
2022/07/20 00:07:44;;;;;;;7.00;4.07;;;20.10;38.10;;;;;;5037237;28;20207;-84
2022/07/20 00:12:57;;;;;;;6.60;3.92;;;20.00;41.00;;;;;;5037345;28;20716;-84
2022/07/20 00:15:24;;;;;;;4.93;4.43;;;19.90;41.90;;;;;;5033772;28;20191;-84
2022/07/20 00:17:51;;;;;;;5.85;4.53;;;19.80;41.30;;;;;;5031980;28;20667;-86
2022/07/20 00:20:18;;;;;;;8.07;4.35;;;19.70;42.00;;;;;;5030968;28;20242;-85
2022/07/20 00:22:46;;;;;;;8.73;4.60;;;19.60;42.80;;;;;;5032858;28;20613;-84
2022/07/20 00:25:13;;;;;;;5.50;4.53;;;19.50;44.00;;;;;;5022674;28;20203;-86
2022/07/20 00:27:40;;;;;;;6.70;4.18;;;19.40;44.10;;;;;;5029177;28;20276;-85
2022/07/20 00:30:08;;;;;;;5.15;4.63;;;19.40;44.60;;;;;;5023655;28;20195;-85
2022/07/20 00:32:38;;;;;;;5.40;4.47;;;19.40;45.10;;;;;;5021837;28;20246;-85
2022/07/20 00:35:05;;;;;;;7.72;4.72;;;19.40;45.60;;;;;;5029484;28;20269;-85
2022/07/20 00:37:32;;;;;;;8.75;4.60;;;19.40;46.60;;;;;;5028798;28;20289;-84
2022/07/20 00:40:01;;;;;;;8.98;4.50;;;19.40;46.10;;;;;;5032861;28;20224;-88
2022/07/20 00:42:28;;;;;;;7.57;4.22;;;19.30;46.30;;;;;;5034410;28;20207;-85
2022/07/20 00:44:54;;;;;;;5.65;4.43;;;19.30;46.70;;;;;;5032466;28;20204;-85
2022/07/20 00:47:21;;;;;;;6.82;4.60;;;19.20;46.60;;;;;;5031636;28;20190;-86
2022/07/20 00:49:48;;;;;;;5.53;4.32;;;19.10;47.00;;;;;;5031047;28;20233;-85
2022/07/20 00:52:16;;;;;;;7.00;4.68;;;19.20;48.60;;;;;;5030197;28;20233;-86
2022/07/20 00:54:48;;;;;;;9.18;4.70;;;19.20;48.90;;;;;;5034801;28;20199;-86
2022/07/20 00:57:17;;;;;;;8.98;4.68;;;19.20;48.00;;;;;;5029726;28;20689;-85
2022/07/20 00:59:44;;;;;;;8.73;4.80;;;19.10;48.40;;;;;;5023166;28;20293;-88
2022/07/20 01:02:11;;;;;;;9.32;4.82;;;19.10;48.20;;;;;;5027898;28;20313;-84
2022/07/20 01:04:37;;;;;;;7.88;4.30;;;19.10;50.20;;;;;;5033151;28;20207;-85
2022/07/20 01:07:04;;;;;;;6.63;4.60;;;19.00;49.40;;;;;;5028880;28;20204;-85
2022/07/20 01:09:32;;;;;;;8.70;4.65;;;19.00;49.60;;;;;;5034828;28;20237;-85
2022/07/20 01:11:59;;;;;;;7.22;4.50;;;19.00;50.50;;;;;;5030664;28;20206;-85
2022/07/20 01:14:28;;;;;;;9.55;4.88;;;18.90;50.10;;;;;;5028684;28;20205;-85
2022/07/20 01:16:55;;;;;;;9.38;4.78;;;18.80;51.40;;;;;;5028828;28;20229;-86
2022/07/20 01:19:21;;;;;;;6.50;4.70;;;18.70;51.50;;;;;;5025863;28;20265;-88
2022/07/20 01:21:50;;;;;;;5.43;4.50;;;18.60;52.50;;;;;;5028934;28;20739;-85
2022/07/20 01:24:17;;;;;;;7.53;4.85;;;18.60;52.30;;;;;;5030893;28;20203;-89
2022/07/20 01:26:45;;;;;;;7.93;4.60;;;18.50;53.10;;;;;;5029146;28;20651;-85
2022/07/20 01:29:13;;;;;;;7.03;4.40;;;18.60;54.60;;;;;;5030392;28;20198;-84
2022/07/20 01:31:40;;;;;;;6.45;4.53;;;18.60;54.60;;;;;;5031332;28;20219;-84
2022/07/20 01:34:08;;;;;;;6.75;5.05;;;18.60;54.60;;;;;;5030466;28;20206;-84
2022/07/20 01:36:35;;;;;;;7.40;4.82;;;18.50;54.60;;;;;;5031287;28;20205;-87
2022/07/20 01:39:03;;;;;;;6.28;4.70;;;18.40;54.50;;;;;;5029183;28;20217;-84
2022/07/20 01:41:30;;;;;;;6.07;4.95;;;18.40;54.50;;;;;;5029728;28;20230;-84
2022/07/20 01:43:57;;;;;;;5.57;4.32;;;18.40;54.50;;;;;;5033682;28;20210;-88
2022/07/20 01:46:24;;;;;;;13.63;5.05;;;18.40;54.50;;;;;;5043283;28;20207;-86
2022/07/20 01:48:51;;;;;;;5.05;4.55;;;18.30;55.50;;;;;;5044703;28;20542;-85
2022/07/20 01:51:18;;;;;;;5.50;4.40;;;18.40;54.50;;;;;;5034865;28;20297;-85
2022/07/20 01:53:49;;;;;;;6.13;4.82;;;18.50;54.60;;;;;;5030919;28;20297;-85
2022/07/20 01:56:17;;;;;;;6.82;4.40;;;18.40;54.50;;;;;;5034740;28;20297;-85
2022/07/20 01:58:44;;;;;;;5.55;4.65;;;18.40;54.50;;;;;;5028054;28;20218;-85
2022/07/20 02:01:11;;;;;;;9.20;5.60;;;18.30;55.30;;;;;;5033675;28;20254;-85
2022/07/20 02:03:40;;;;;;;11.05;4.82;;;18.30;54.40;;;;;;5038181;28;20236;-85
2022/07/20 02:06:07;;;;;;;13.55;5.00;;;18.20;55.60;;;;;;5034461;28;20676;-85
2022/07/20 02:08:37;;;;;;;7.05;5.07;;;18.20;56.10;;;;;;5040969;28;20220;-86
2022/07/20 02:11:04;;;;;;;8.07;5.15;;;18.20;55.10;;;;;;5036959;28;20209;-90
2022/07/20 02:13:34;;;;;;;10.95;4.88;;;18.30;55.20;;;;;;5031431;28;20203;-89
2022/07/20 02:16:16;;;;;;;6.35;4.75;;;18.20;55.30;;;;;;5032471;28;20730;-88
2022/07/20 02:18:43;;;;;;;7.07;5.18;;;18.10;56.50;;;;;;5029665;28;20204;-87
2022/07/20 02:21:09;;;;;;;5.38;4.55;;;18.10;56.70;;;;;;5035644;28;20232;-87
2022/07/20 02:23:37;;;;;;;6.93;4.88;;;18.10;57.80;;;;;;5027590;28;20194;-88
2022/07/20 02:26:04;;;;;;;7.28;5.30;;;18.00;58.10;;;;;;5033099;28;20213;-88
2022/07/20 02:28:32;;;;;;;10.35;4.70;;;18.00;57.60;;;;;;5037889;28;20201;-87
2022/07/20 02:30:59;;;;;;;9.20;4.70;;;17.90;58.10;;;;;;5037177;28;20206;-87
2022/07/20 02:33:26;;;;;;;5.88;5.05;;;17.80;58.70;;;;;;5033264;28;20234;-87
2022/07/20 02:35:53;;;;;;;7.70;5.43;;;17.80;59.30;;;;;;5033150;28;20206;-87
2022/07/20 02:38:20;;;;;;;5.28;4.55;;;17.80;59.20;;;;;;5031481;28;20290;-87
2022/07/20 02:40:47;;;;;;;6.80;5.22;;;17.80;59.50;;;;;;5024129;28;20237;-87
2022/07/20 02:43:14;;;;;;;7.18;5.28;;;17.80;59.80;;;;;;5027771;28;20264;-87
2022/07/20 02:45:42;;;;;;;8.73;4.93;;;17.90;60.40;;;;;;5034753;28;20214;-87
2022/07/20 02:48:10;;;;;;;7.50;4.50;;;17.90;59.30;;;;;;5036227;28;20643;-89
2022/07/20 02:50:42;;;;;;;5.82;5.10;;;17.90;59.20;;;;;;5027422;28;20203;-88
2022/07/20 02:53:10;;;;;;;6.45;4.90;;;17.80;59.30;;;;;;5021072;28;20684;-89
2022/07/20 02:55:37;;;;;;;5.55;4.85;;;17.70;59.60;;;;;;5023421;28;20635;-90
2022/07/20 02:58:07;;;;;;;6.78;4.78;;;17.70;60.80;;;;;;5034624;28;20210;-87
2022/07/20 03:00:35;;;;;;;5.30;4.55;;;17.70;60.10;;;;;;5033290;28;20208;-87
2022/07/20 03:03:04;;;;;;;8.93;4.70;;;17.80;61.10;;;;;;5033448;28;20206;-87
2022/07/20 03:05:31;;;;;;;6.40;5.05;;;17.90;60.00;;;;;;5036168;28;20199;-87
2022/07/20 03:07:58;;;;;;;6.95;5.00;;;17.90;62.10;;;;;;5035696;28;20718;-89
2022/07/20 03:10:25;;;;;;;6.07;4.72;;;18.10;59.90;;;;;;5034745;28;20195;-87
2022/07/20 03:12:52;;;;;;;8.30;4.78;;;18.00;59.60;;;;;;5027693;28;20207;-87
2022/07/20 03:15:19;;;;;;;6.05;4.72;;;17.90;60.60;;;;;;5024033;28;20568;-87
2022/07/20 03:17:49;;;;;;;8.13;4.85;;;17.90;60.30;;;;;;5033971;28;20214;-87
2022/07/20 03:20:21;;;;;;;5.05;4.53;;;17.90;60.10;;;;;;5028569;28;20343;-87
2022/07/20 03:22:48;;;;;;;6.93;4.93;;;17.90;60.90;;;;;;5032719;28;20230;-87
2022/07/20 03:25:15;;;;;;;6.47;4.70;;;18.00;60.70;;;;;;5030249;28;20203;-88
2022/07/20 03:27:42;;;;;;;8.02;4.90;;;18.00;60.00;;;;;;5034031;28;20681;-89
2022/07/20 03:30:09;;;;;;;8.10;4.85;;;18.00;60.00;;;;;;5033363;28;20233;-88
2022/07/20 03:32:37;;;;;;;6.80;4.82;;;17.90;61.00;;;;;;5034628;28;20244;-88
2022/07/20 03:35:04;;;;;;;6.97;5.10;;;17.80;61.60;;;;;;5033279;28;20206;-88
2022/07/20 03:37:33;;;;;;;7.15;5.03;;;17.60;62.10;;;;;;5032052;28;20727;-87
2022/07/20 03:40:00;;;;;;;7.25;5.03;;;17.50;63.20;;;;;;5030963;28;20222;-88
2022/07/20 03:42:27;;;;;;;8.93;5.15;;;17.50;64.30;;;;;;5036027;28;20226;-87
2022/07/20 03:44:54;;;;;;;9.00;4.95;;;17.40;65.70;;;;;;5031925;28;20289;-90
2022/07/20 03:47:21;;;;;;;6.50;5.22;;;17.40;66.10;;;;;;5025877;28;20207;-87
2022/07/20 03:49:48;;;;;;;8.20;4.60;;;17.40;66.80;;;;;;5028754;28;20211;-88
2022/07/20 03:52:15;;;;;;;6.63;4.60;;;17.60;66.50;;;;;;5027048;28;20207;-87
2022/07/20 03:54:43;;;;;;;6.25;4.60;;;17.70;64.60;;;;;;5029387;28;20206;-87
2022/07/20 03:57:11;;;;;;;6.18;4.90;;;17.80;64.90;;;;;;5022877;28;20667;-87
2022/07/20 03:59:43;;;;;;;5.93;4.90;;;17.70;65.10;;;;;;5031039;28;20735;-87
2022/07/20 04:02:10;;;;;;;8.52;5.35;;;17.70;66.40;;;;;;5029449;28;20306;-88
2022/07/20 04:04:37;;;;;;;6.50;5.30;;;17.80;64.50;;;;;;5028800;28;20213;-87
2022/07/20 04:07:04;;;;;;;9.02;5.05;;;17.90;64.10;;;;;;5027168;28;20294;-87
2022/07/20 04:09:46;;;;;;;5.90;4.97;;;17.90;64.40;;;;;;5025056;28;20217;-87
2022/07/20 04:12:17;;;;;;;7.30;4.85;;;17.90;64.70;;;;;;5028018;28;20319;-87
2022/07/20 04:14:44;;;;;;;10.35;5.15;;;17.90;63.80;;;;;;5029070;28;20218;-87
2022/07/20 04:17:11;;;;;;;5.82;5.20;;;17.80;64.10;;;;;;5034882;28;20203;-87
2022/07/20 04:19:39;;;;;;;6.25;5.10;;;17.80;64.70;;;;;;5036636;28;20198;-87
2022/07/20 04:22:06;;;;;;;8.05;5.15;;;18.00;64.00;;;;;;5036316;28;20222;-88
2022/07/20 04:24:38;;;;;;;9.02;5.20;;;18.10;63.30;;;;;;5032461;28;20217;-91
2022/07/20 04:27:07;;;;;;;10.55;4.80;;;18.20;64.10;;;;;;5028222;28;20207;-89
2022/07/20 04:29:36;;;;;;;9.35;5.45;;;18.30;62.80;;;;;;5032291;28;20213;-88
2022/07/20 04:32:03;;;;;;;6.53;4.97;;;18.30;62.30;;;;;;5032412;28;20237;-87
2022/07/20 04:34:30;;;;;;;7.53;4.95;;;18.20;62.20;;;;;;5029863;28;20206;-89
2022/07/20 04:36:57;;;;;;;7.43;5.10;;;18.30;63.50;;;;;;5018887;28;20199;-88
2022/07/20 04:39:24;;;;;;;8.93;5.25;;;18.40;63.20;;;;;;5021896;28;20202;-85
2022/07/20 04:41:51;;;;;;;7.90;5.07;;;18.40;61.60;;;;;;5023983;28;20354;-85
2022/07/20 04:44:18;;;;;;;10.32;5.22;;;18.50;61.70;;;;;;5029678;28;20207;-86
2022/07/20 04:46:46;;;;;;;7.03;5.18;;;18.60;61.30;;;;;;5023323;28;20199;-85
2022/07/20 04:49:13;;;;;;;6.53;5.35;;;18.60;60.00;;;;;;5026637;28;20218;-85
2022/07/20 04:51:40;;;;;;;10.85;5.20;;;18.70;59.70;;;;;;5030578;28;20293;-85
2022/07/20 04:54:07;;;;;;;7.32;6.40;;;18.80;58.70;;;;;;5021799;28;20214;-87
2022/07/20 04:56:34;;;;;;;12.23;5.78;;;18.90;60.90;;;;;;5025498;28;20560;-86
2022/07/20 04:59:01;;;;;;;6.80;5.15;;;18.90;59.70;;;;;;5020544;28;20204;-84
2022/07/20 05:01:28;;;;;;;8.35;5.45;;;19.00;58.80;;;;;;5028957;28;20214;-83
2022/07/20 05:03:57;;;;;;;5.85;5.28;;;19.10;58.80;;;;;;5032122;28;20198;-84
2022/07/20 05:06:24;;;;;;;5.90;5.30;;;19.20;58.70;;;;;;5026510;28;20206;-84
2022/07/20 05:08:50;;;;;;;10.70;5.25;;;19.20;58.50;;;;;;5026380;28;20551;-85
2022/07/20 05:11:19;;;;;;;6.00;5.30;;;19.30;57.20;;;;;;5023461;28;20661;-85
2022/07/20 05:13:46;;;;;;;6.88;5.53;;;19.40;57.40;;;;;;5018582;28;20198;-85
2022/07/20 05:16:14;;;;;;;11.02;5.93;;;19.60;57.30;;;;;;5024057;28;20195;-84
2022/07/20 05:18:43;;;;;;;7.75;5.85;;;20.10;56.00;;;;;;5021757;28;20218;-87
2022/07/20 05:21:15;;;;;;;7.90;5.32;;;20.40;53.00;;;;;;5017566;28;20318;-87
2022/07/20 05:23:42;;;;;;;6.78;5.78;;;20.50;51.80;;;;;;5025650;28;20199;-84
2022/07/20 05:26:08;;;;;;;7.07;5.65;;;20.50;52.00;;;;;;5033879;28;20198;-83
2022/07/20 05:28:35;;;;;;;7.70;5.80;;;20.50;51.80;;;;;;5025293;28;20203;-83
2022/07/20 05:31:03;;;;;;;8.30;5.65;;;20.50;51.90;;;;;;5030965;28;20574;-83
2022/07/20 05:33:30;;;;;;;8.35;5.53;;;20.50;53.00;;;;;;5027307;28;20688;-83
2022/07/20 05:35:57;;;;;;;9.05;6.00;;;20.80;52.50;;;;;;5025143;28;20198;-84
2022/07/20 05:38:27;;;;;;;8.18;5.97;;;21.30;51.90;;;;;;5026152;28;20198;-84
2022/07/20 05:40:53;;;;;;;11.65;5.93;;;21.70;46.20;;;;;;5028935;28;20559;-85
2022/07/20 05:43:25;;;;;;;6.80;5.70;;;21.90;44.70;;;;;;5031022;28;20222;-84
2022/07/20 05:45:52;;;;;;;9.07;5.65;;;22.00;43.90;;;;;;5031006;28;20199;-84
2022/07/20 05:48:19;;;;;;;9.80;5.95;;;22.10;43.20;;;;;;5025781;28;20199;-84
2022/07/20 05:50:46;;;;;;;8.38;5.55;;;22.20;44.80;;;;;;5024356;28;20673;-84
2022/07/20 05:53:14;;;;;;;6.72;5.15;;;22.50;42.20;;;;;;5023635;28;20213;-85
2022/07/20 05:55:42;;;;;;;6.10;4.97;;;22.60;41.80;;;;;;5019192;28;20203;-85
2022/07/20 05:58:10;;;;;;;10.05;5.60;;;22.70;42.10;;;;;;5026529;28;20209;-85
2022/07/20 06:00:38;;;;;;;5.85;5.20;;;23.00;41.80;;;;;;5023157;28;20199;-84
2022/07/20 06:03:06;;;;;;;8.88;5.75;;;23.40;39.60;;;;;;5022010;28;21395;-81
2022/07/20 06:06:01;;;;;;;8.23;5.30;;;23.30;39.20;;;;;;5023236;28;20664;-82
2022/07/20 06:08:31;;;;;;;8.38;5.30;;;23.30;38.80;;;;;;5024707;28;20203;-81
2022/07/20 06:10:59;;;;;;;8.02;5.30;;;23.10;40.30;;;;;;5026424;28;20199;-82
2022/07/20 06:13:31;;;;;;;8.40;5.47;;;22.90;42.60;;;;;;5027863;28;20203;-82
2022/07/20 06:15:58;;;;;;;8.23;5.53;;;22.70;42.00;;;;;;5032859;28;20213;-82
2022/07/20 06:18:25;;;;;;;10.32;5.35;;;22.60;43.60;;;;;;5026411;28;20205;-81
2022/07/20 06:20:55;;;;;;;5.72;5.07;;;22.50;44.30;;;;;;5034801;28;20198;-80
2022/07/20 06:23:22;;;;;;;6.53;5.57;;;22.40;44.30;;;;;;5032150;28;20218;-81
2022/07/20 06:25:49;;;;;;;5.63;5.05;;;22.40;44.50;;;;;;5027471;28;20210;-80
2022/07/20 06:28:17;;;;;;;10.00;5.10;;;22.50;43.10;;;;;;5032621;28;20282;-81
2022/07/20 06:30:49;;;;;;;6.53;5.30;;;22.50;43.70;;;;;;5021673;28;20270;-82
2022/07/20 06:33:25;;;;;;;5.30;4.80;;;22.60;44.00;;;;;;5031248;28;20228;-82
2022/07/20 06:35:52;;;;;;;7.22;5.75;;;22.70;43.90;;;;;;5028536;28;20206;-82
2022/07/20 06:38:19;;;;;;;7.80;5.13;;;22.80;44.30;;;;;;5026290;28;20195;-81
2022/07/20 06:40:55;;;;;;;6.53;5.15;;;22.90;40.70;;;;;;5022415;28;20203;-81
2022/07/20 06:43:23;;;;;;;8.98;5.70;;;23.00;43.40;;;;;;5030232;28;20750;-84
2022/07/20 06:45:51;;;;;;;6.53;5.00;;;23.10;42.20;;;;;;5023747;28;20203;-84
2022/07/20 06:48:18;;;;;;;7.88;5.35;;;23.20;41.00;;;;;;5030219;28;20606;-85
2022/07/20 06:50:44;;;;;;;10.00;5.40;;;23.40;40.40;;;;;;5044262;28;20262;-85
2022/07/20 06:53:11;;;;;;;7.45;5.18;;;23.50;38.90;;;;;;5032165;28;20271;-85
2022/07/20 06:55:45;;;;;;;7.88;5.30;;;23.60;38.30;;;;;;5040561;28;20198;-85
2022/07/20 06:58:12;;;;;;;7.50;5.30;;;23.80;38.00;;;;;;5024254;28;20191;-87
2022/07/20 07:00:40;;;;;;;5.88;5.15;;;24.00;35.40;;;;;;5018780;28;20670;-86
2022/07/20 07:03:07;;;;;;;8.30;5.10;;;24.10;35.50;;;;;;5032278;28;20223;-86
2022/07/20 07:05:34;;;;;;;10.32;5.43;;;24.30;35.70;;;;;;5031955;28;20277;-87
2022/07/20 07:08:01;;;;;;;6.28;5.68;;;24.40;35.80;;;;;;5025907;28;20297;-85
2022/07/20 07:10:28;;;;;;;8.40;5.65;;;24.60;35.90;;;;;;5027247;28;20218;-85
2022/07/20 07:12:55;;;;;;;6.55;5.82;;;24.80;32.70;;;;;;5017854;28;20542;-85
2022/07/20 07:15:22;;;;;;;7.88;5.53;;;24.90;36.20;;;;;;5031530;28;20295;-85
2022/07/20 07:17:50;;;;;;;10.07;9.07;;;25.10;33.80;;;;;;5030083;28;20213;-86
2022/07/20 07:20:16;;;;;;;9.18;6.10;;;25.10;31.30;;;;;;5033849;28;20564;-86
2022/07/20 07:22:43;;;;;;;7.38;6.38;;;25.20;30.00;;;;;;5034537;28;20234;-82
2022/07/20 07:25:10;;;;;;;7.60;6.00;;;25.40;30.00;;;;;;5032842;28;20302;-82
2022/07/20 07:27:37;;;;;;;11.95;6.05;;;25.50;31.00;;;;;;5020090;28;20203;-83
2022/07/20 07:30:05;;;;;;;9.35;6.47;;;25.70;29.00;;;;;;5031761;28;20278;-82
2022/07/20 07:32:43;;;;;;;10.52;5.90;;;25.90;28.30;;;;;;5033537;28;20226;-82
2022/07/20 07:35:11;;;;;;;8.15;5.38;;;25.90;26.90;;;;;;5031149;28;20209;-82
2022/07/20 07:37:39;;;;;;;8.07;6.18;;;26.00;26.30;;;;;;5034378;28;20194;-85
2022/07/20 07:40:08;;;;;;;10.00;8.82;;;26.20;26.20;;;;;;5027632;28;20195;-84
2022/07/20 07:42:35;;;;;;;6.85;5.80;;;26.20;26.60;;;;;;5019721;28;20700;-84
2022/07/20 07:45:06;;;;;;;8.63;5.93;;;26.40;25.30;;;;;;5023708;28;20658;-84
2022/07/20 07:47:34;;;;;;;8.02;5.80;;;26.50;24.60;;;;;;5027089;28;20245;-84
2022/07/20 07:50:01;;;;;;;8.02;5.38;;;26.60;24.60;;;;;;5031610;28;20214;-84
2022/07/20 07:52:29;;;;;;;8.70;5.82;;;26.70;24.70;;;;;;5021180;28;20687;-84
2022/07/20 07:54:56;;;;;;;9.18;5.80;;;26.80;25.10;;;;;;5021800;28;20194;-84
2022/07/20 07:57:23;;;;;;;9.30;6.38;;;26.90;25.70;;;;;;5023506;28;20562;-84
2022/07/20 07:59:50;;;;;;;7.88;5.95;;;27.00;23.60;;;;;;5016270;28;20281;-84
2022/07/20 08:02:19;;;;;;;9.73;6.38;;;27.10;24.10;;;;;;5019143;28;20223;-84
2022/07/20 08:04:46;;;;;;;9.43;5.75;;;27.30;24.70;;;;;;5020364;28;20199;-84
2022/07/20 08:07:13;;;;;;;10.63;6.25;;;27.30;22.60;;;;;;5026346;28;20563;-83
2022/07/20 08:09:41;;;;;;;12.55;6.32;;;27.30;22.50;;;;;;5031724;28;20210;-83
2022/07/20 08:12:13;;;;;;;8.13;5.53;;;27.40;21.30;;;;;;5019202;28;20210;-85
2022/07/20 08:14:40;;;;;;;9.90;6.78;;;27.50;21.90;;;;;;5029851;28;20658;-84
2022/07/20 08:17:07;;;;;;;6.68;5.80;;;27.70;20.90;;;;;;5032237;28;20294;-84
2022/07/20 08:19:34;;;;;;;8.02;6.20;;;27.80;20.00;;;;;;5026834;28;20209;-84
2022/07/20 08:22:01;;;;;;;12.88;6.13;;;28.00;19.10;;;;;;5025404;28;20679;-85
2022/07/20 08:24:28;;;;;;;10.23;6.07;;;28.10;19.20;;;;;;5034999;28;20564;-84
2022/07/20 08:26:56;;;;;;;7.40;6.03;;;28.20;19.50;;;;;;5033952;28;20603;-84
2022/07/20 08:29:23;;;;;;;7.47;5.88;;;28.50;18.70;;;;;;5034303;28;20205;-84
2022/07/20 08:31:50;;;;;;;9.65;6.10;;;28.90;17.50;;;;;;5024615;28;20218;-85
2022/07/20 08:34:17;;;;;;;11.05;6.40;;;29.60;16.40;;;;;;5023853;28;20212;-85
2022/07/20 08:36:44;;;;;;;8.18;5.80;;;30.80;14.10;;;;;;5029248;28;20213;-85
2022/07/20 08:39:10;;;;;;;9.68;6.35;;;31.90;13.20;;;;;;5033614;28;20210;-85
2022/07/20 08:41:39;;;;;;;8.27;5.57;;;32.50;12.90;;;;;;5031294;28;20205;-85
2022/07/20 08:44:07;;;;;;;6.10;5.30;;;32.70;12.00;;;;;;5039258;28;20221;-85
2022/07/20 08:46:35;;;;;;;8.30;5.90;;;32.30;11.10;;;;;;5027810;28;20548;-84
2022/07/20 08:49:03;;;;;;;6.97;5.95;;;32.10;11.40;;;;;;5026801;28;20293;-85
2022/07/20 08:51:30;;;;;;;7.72;5.68;;;32.00;10.80;;;;;;5025934;28;20217;-85
2022/07/20 08:53:57;;;;;;;11.35;5.72;;;32.40;11.40;;;;;;5027022;28;20639;-85
2022/07/20 08:56:24;;;;;;;7.00;5.78;;;33.30;10.00;;;;;;5017765;28;20203;-85
2022/07/20 08:58:50;;;;;;;6.55;6.00;;;34.70;8.60;;;;;;5025017;28;20201;-85
2022/07/20 09:01:19;;;;;;;5.70;5.20;;;35.70;6.70;;;;;;5033477;28;20551;-86
2022/07/20 09:04:05;;;;;;;9.65;5.90;;;36.80;5.20;;;;;;5032016;28;20215;-86
2022/07/20 09:06:32;;;;;;;6.68;5.90;;;37.80;3.60;;;;;;5036322;28;20202;-85
2022/07/20 09:09:05;;;;;;;8.63;7.18;;;39.10;3.20;;;;;;5029177;28;20210;-89
2022/07/20 09:11:32;;;;;;;26.20;23.90;;;40.10;2.10;;;;;;5028766;28;20285;-88
2022/07/20 09:14:01;;;;;;;10.65;8.13;;;40.90;1.00;;;;;;5026443;28;20214;-88
2022/07/20 09:16:36;;;;;;;9.23;7.78;;;41.60;1.00;;;;;;5028571;28;20217;-89
2022/07/20 09:19:03;;;;;;;8.73;7.68;;;41.50;1.00;;;;;;5031472;28;20255;-88
2022/07/20 09:21:31;;;;;;;10.57;7.93;;;41.10;1.00;;;;;;5030404;28;20206;-88
2022/07/20 09:24:03;;;;;;;9.00;8.13;;;41.20;1.00;;;;;;5040483;28;20264;-88
2022/07/20 09:26:31;;;;;;;9.65;8.65;;;41.20;1.00;;;;;;5038118;28;20653;-88
2022/07/20 09:28:59;;;;;;;10.82;8.40;;;41.20;1.00;;;;;;5036660;28;20202;-88
2022/07/20 09:31:30;;;;;;;11.45;8.65;;;41.00;1.00;;;;;;5031314;28;20198;-90
2022/07/20 09:34:00;;;;;;;8.98;8.20;;;41.20;1.00;;;;;;5024319;28;20250;-88
2022/07/20 09:36:28;;;;;;;9.93;9.02;;;41.00;1.00;;;;;;5031130;28;20682;-88
2022/07/20 09:39:05;;;;;;;10.30;9.25;;;41.80;1.00;;;;;;5029102;28;20221;-90
2022/07/20 09:41:33;;;;;;;9.85;9.10;;;42.20;1.00;;;;;;5023504;28;20203;-89
2022/07/20 09:44:04;;;;;;;10.43;9.48;;;42.10;1.00;;;;;;5033325;28;20655;-88
2022/07/20 09:46:34;;;;;;;10.10;9.15;;;41.40;1.00;;;;;;5033491;28;20292;-89
2022/07/20 09:49:04;;;;;;;10.25;9.55;;;41.10;1.00;;;;;;5033057;28;20197;-89
2022/07/20 09:51:34;;;;;;;10.50;9.45;;;40.70;1.00;;;;;;5024724;28;20195;-89
2022/07/20 09:54:02;;;;;;;13.18;10.13;;;40.90;1.00;;;;;;5029569;28;20234;-88
2022/07/20 09:56:30;;;;;;;11.27;10.30;;;41.10;1.00;;;;;;5031425;28;20279;-89
2022/07/20 09:59:00;;;;;;;11.95;10.25;;;40.80;1.00;;;;;;5029662;28;20199;-88
2022/07/20 10:01:30;;;;;;;10.82;9.82;;;40.80;1.00;;;;;;5018121;28;20229;-90
2022/07/20 10:03:59;;;;;;;11.15;9.95;;;39.90;1.20;;;;;;5026918;28;20693;-88
2022/07/20 10:06:29;;;;;;;11.18;10.27;;;40.50;1.00;;;;;;5020109;28;20209;-89
2022/07/20 10:08:56;;;;;;;14.40;13.35;;;41.10;1.00;;;;;;5023865;28;20214;-88
2022/07/20 10:11:25;;;;;;;13.15;12.15;;;41.60;1.00;;;;;;5025078;28;20207;-89
2022/07/20 10:13:54;;;;;;;12.68;11.55;;;42.00;1.00;;;;;;5020617;28;20203;-89
2022/07/20 10:16:27;;;;;;;12.57;11.52;;;41.80;1.00;;;;;;5024704;28;20199;-89
2022/07/20 10:18:56;;;;;;;11.75;10.95;;;42.10;1.00;;;;;;5029218;28;20194;-88
2022/07/20 10:21:39;;;;;;;12.60;11.50;;;42.00;1.00;;;;;;5024822;28;20286;-89
2022/07/20 10:24:22;;;;;;;12.00;11.02;;;41.80;1.00;;;;;;5031126;28;20688;-89
2022/07/20 10:26:49;;;;;;;12.82;11.77;;;41.10;1.00;;;;;;5021825;28;20270;-88
2022/07/20 10:29:27;;;;;;;12.70;11.48;;;40.70;1.50;;;;;;5033643;28;20291;-89
2022/07/20 10:31:56;;;;;;;13.02;10.32;;;39.90;2.00;;;;;;5035035;28;20641;-88
2022/07/20 10:34:44;;;;;;;10.65;9.75;;;40.30;1.00;;;;;;5040603;28;20209;-89
2022/07/20 10:37:26;;;;;;;9.93;9.15;;;40.70;1.00;;;;;;5020873;28;20279;-88
2022/07/20 10:40:02;;;;;;;11.38;8.55;;;41.00;1.00;;;;;;5025163;28;20194;-88
2022/07/20 10:42:31;;;;;;;9.35;8.43;;;41.30;1.00;;;;;;5037644;28;20208;-87
2022/07/20 10:45:40;;;;;;;10.82;9.95;;;41.10;1.00;;;;;;5025869;28;20224;-88
2022/07/20 10:48:20;;;;;;;10.10;9.20;;;40.70;1.00;;;;;;4999886;28;20233;-88
2022/07/20 10:50:49;;;;;;;8.02;7.28;;;40.90;1.00;;;;;;5025397;28;20198;-88
2022/07/20 10:53:34;;;;;;;8.25;7.43;;;40.90;1.00;;;;;;5030568;28;20206;-89
2022/07/20 10:56:06;;;;;;;8.13;7.30;;;41.00;1.00;;;;;;5023248;28;20201;-88
2022/07/20 10:58:35;;;;;;;8.00;7.30;;;40.90;1.00;;;;;;5028901;28;20231;-88
2022/07/20 11:01:05;;;;;;;7.88;7.18;;;40.60;1.00;;;;;;5029683;28;20603;-88
2022/07/20 11:03:36;;;;;;;9.18;6.90;;;40.30;1.00;;;;;;5025949;28;20685;-88
2022/07/20 11:06:07;;;;;;;9.55;7.10;;;40.20;1.00;;;;;;5036962;28;20305;-88
2022/07/20 11:08:37;;;;;;;9.07;6.80;;;39.80;1.00;;;;;;5030647;28;20209;-86
2022/07/20 11:11:05;;;;;;;12.38;6.72;;;39.70;1.00;;;;;;5028811;28;20662;-87
2022/07/20 11:13:32;;;;;;;9.05;6.10;;;39.40;1.00;;;;;;5034222;28;20198;-88
2022/07/20 11:16:01;;;;;;;8.70;6.32;;;38.60;1.00;;;;;;5025293;28;20210;-85
2022/07/20 11:18:30;;;;;;;6.82;6.07;;;37.80;1.00;;;;;;5031261;28;20194;-89
2022/07/20 11:20:59;;;;;;;6.70;5.50;;;37.30;3.20;;;;;;5020011;28;20678;-85
2022/07/20 11:23:27;;;;;;;10.40;5.90;;;37.00;1.00;;;;;;5021184;28;20224;-85
2022/07/20 11:25:57;;;;;;;6.63;5.22;;;36.60;1.20;;;;;;5021643;28;20234;-84
2022/07/20 11:28:28;;;;;;;6.63;5.13;;;36.60;2.70;;;;;;5031004;28;20665;-84
2022/07/20 11:30:56;;;;;;;7.47;5.43;;;36.40;1.00;;;;;;5029500;28;20221;-85
2022/07/20 11:33:28;;;;;;;6.45;5.30;;;36.20;1.00;;;;;;5026806;28;20231;-85
2022/07/20 11:35:57;;;;;;;9.32;5.15;;;36.10;2.50;;;;;;5025126;28;20217;-85
2022/07/20 11:38:24;;;;;;;8.38;5.05;;;36.00;1.40;;;;;;5025215;28;20206;-84
2022/07/20 11:41:03;;;;;;;9.00;5.70;;;36.00;3.90;;;;;;5031686;28;20298;-84
2022/07/20 11:43:32;;;;;;;8.45;5.50;;;35.80;2.60;;;;;;5031131;28;20232;-84
2022/07/20 11:46:13;;;;;;;5.82;5.03;;;35.80;3.70;;;;;;5039206;28;20212;-84
2022/07/20 11:48:40;;;;;;;5.47;4.60;;;35.80;2.20;;;;;;5036985;28;20416;-84
2022/07/20 11:51:08;;;;;;;7.88;4.55;;;35.90;1.00;;;;;;5028758;28;20621;-83
2022/07/20 11:53:37;;;;;;;14.85;10.68;;;35.90;1.00;;;;;;5026458;28;20296;-84
2022/07/20 11:56:11;;;;;;;8.98;6.82;;;35.70;1.00;;;;;;5027187;28;20246;-83
2022/07/20 11:58:39;;;;;;;8.23;5.07;;;35.70;1.60;;;;;;5023142;28;20746;-84
2022/07/20 12:01:08;;;;;;;5.97;5.40;;;35.70;1.50;;;;;;5026078;28;20602;-85
2022/07/20 12:03:40;;;;;;;11.13;4.70;;;35.60;2.00;;;;;;5025075;28;20225;-85
2022/07/20 12:06:09;;;;;;;9.82;4.50;;;35.60;1.00;;;;;;5024152;28;20218;-84
2022/07/20 12:08:37;;;;;;;10.35;4.97;;;35.50;1.00;;;;;;5027009;28;20206;-85
2022/07/20 12:11:06;;;;;;;6.60;5.03;;;35.50;1.20;;;;;;5024149;28;20213;-84
2022/07/20 12:13:44;;;;;;;7.78;4.85;;;35.70;1.00;;;;;;5024464;28;20600;-84
2022/07/20 12:16:16;;;;;;;9.32;4.85;;;35.70;1.50;;;;;;5024008;28;20206;-85
2022/07/20 12:18:45;;;;;;;6.68;4.85;;;35.40;1.00;;;;;;5029071;28;20210;-85
2022/07/20 12:21:22;;;;;;;9.57;4.85;;;35.30;1.00;;;;;;5026348;28;20203;-85
2022/07/20 12:24:16;;;;;;;9.20;5.00;;;35.20;2.00;;;;;;5026219;28;20226;-85
2022/07/20 12:26:46;;;;;;;7.90;4.70;;;35.30;1.80;;;;;;5027092;28;20199;-86
2022/07/20 12:29:21;;;;;;;7.10;4.07;;;35.40;1.00;;;;;;5024873;28;20669;-87
2022/07/20 12:32:27;;;;;;;7.30;4.90;;;35.40;1.00;;;;;;5026187;28;20272;-85
2022/07/20 12:34:55;;;;;;;5.93;4.28;;;35.30;1.00;;;;;;5027083;28;20202;-85
2022/07/20 12:37:23;;;;;;;6.45;4.45;;;35.40;1.00;;;;;;5028503;28;20195;-85
2022/07/20 12:39:56;;;;;;;6.60;4.10;;;35.40;1.00;;;;;;5031253;28;20206;-85
2022/07/20 12:42:27;;;;;;;6.38;4.50;;;35.50;1.00;;;;;;5028355;28;20207;-86
2022/07/20 12:44:59;;;;;;;6.13;4.28;;;35.60;1.00;;;;;;5026143;28;20237;-85
2022/07/20 12:47:26;;;;;;;9.05;5.40;;;35.50;1.00;;;;;;5021273;28;20628;-85
2022/07/20 12:49:53;;;;;;;6.32;4.50;;;35.40;1.00;;;;;;5018402;28;20199;-85
2022/07/20 12:52:20;;;;;;;7.63;4.70;;;35.60;1.00;;;;;;5014547;28;20202;-86
2022/07/20 12:54:47;;;;;;;6.95;4.43;;;35.60;1.00;;;;;;5016495;28;20209;-85
2022/07/20 12:57:16;;;;;;;5.90;4.43;;;35.50;1.00;;;;;;5025147;28;20202;-85
2022/07/20 12:59:47;;;;;;;5.82;4.55;;;35.60;1.20;;;;;;5028245;28;20205;-84